sensor_id;sensor_type;location;lat;lon;timestamp;temperature;humidity
13049;DHT22;6591;51.446;5.404;2022-09-03T00:00:54;19.50;54.90
13049;DHT22;6591;51.446;5.404;2022-09-03T00:03:36;19.60;55.00
13049;DHT22;6591;51.446;5.404;2022-09-03T00:06:22;19.50;55.30
13049;DHT22;6591;51.446;5.404;2022-09-03T00:08:56;19.50;55.50
13049;DHT22;6591;51.446;5.404;2022-09-03T00:11:32;19.50;55.10
13049;DHT22;6591;51.446;5.404;2022-09-03T00:17:18;19.40;55.80
13049;DHT22;6591;51.446;5.404;2022-09-03T00:20:09;21.50;56.70
13049;DHT22;6591;51.446;5.404;2022-09-03T00:23:30;19.30;55.90
13049;DHT22;6591;51.446;5.404;2022-09-03T00:32:23;19.30;56.20
13049;DHT22;6591;51.446;5.404;2022-09-03T00:34:33;18.40;55.90
13049;DHT22;6591;51.446;5.404;2022-09-03T00:37:07;19.20;56.20
13049;DHT22;6591;51.446;5.404;2022-09-03T00:39:41;20.70;56.80
13049;DHT22;6591;51.446;5.404;2022-09-03T00:48:29;18.20;56.10
13049;DHT22;6591;51.446;5.404;2022-09-03T00:54:05;18.80;56.70
13049;DHT22;6591;51.446;5.404;2022-09-03T01:06:22;18.70;57.20
13049;DHT22;6591;51.446;5.404;2022-09-03T01:09:07;18.20;57.00
13049;DHT22;6591;51.446;5.404;2022-09-03T01:11:56;18.60;57.20
13049;DHT22;6591;51.446;5.404;2022-09-03T01:18:06;18.60;57.40
13049;DHT22;6591;51.446;5.404;2022-09-03T01:20:57;18.50;57.40
13049;DHT22;6591;51.446;5.404;2022-09-03T01:29:35;18.50;57.90
13049;DHT22;6591;51.446;5.404;2022-09-03T01:32:26;18.50;57.50
13049;DHT22;6591;51.446;5.404;2022-09-03T01:35:17;18.50;58.20
13049;DHT22;6591;51.446;5.404;2022-09-03T01:40:49;18.50;57.70
13049;DHT22;6591;51.446;5.404;2022-09-03T01:46:51;19.80;59.00
13049;DHT22;6591;51.446;5.404;2022-09-03T01:49:40;18.40;58.00
13049;DHT22;6591;51.446;5.404;2022-09-03T01:58:55;18.40;58.20
13049;DHT22;6591;51.446;5.404;2022-09-03T02:01:55;17.10;57.60
13049;DHT22;6591;51.446;5.404;2022-09-03T02:04:28;18.50;58.20
13049;DHT22;6591;51.446;5.404;2022-09-03T02:07:02;18.40;57.70
13049;DHT22;6591;51.446;5.404;2022-09-03T02:09:32;18.50;57.90
13049;DHT22;6591;51.446;5.404;2022-09-03T02:12:13;20.40;59.40
13049;DHT22;6591;51.446;5.404;2022-09-03T02:14:48;18.40;58.50
13049;DHT22;6591;51.446;5.404;2022-09-03T02:17:15;19.90;59.00
13049;DHT22;6591;51.446;5.404;2022-09-03T02:19:42;18.30;58.40
13049;DHT22;6591;51.446;5.404;2022-09-03T02:22:09;18.30;58.90
13049;DHT22;6591;51.446;5.404;2022-09-03T02:24:39;18.30;58.40
13049;DHT22;6591;51.446;5.404;2022-09-03T02:27:06;18.30;58.60
13049;DHT22;6591;51.446;5.404;2022-09-03T02:29:33;19.30;58.90
13049;DHT22;6591;51.446;5.404;2022-09-03T02:32:00;18.90;59.60
13049;DHT22;6591;51.446;5.404;2022-09-03T02:34:28;18.30;58.60
13049;DHT22;6591;51.446;5.404;2022-09-03T02:36:56;18.90;58.80
13049;DHT22;6591;51.446;5.404;2022-09-03T02:39:23;18.20;58.40
13049;DHT22;6591;51.446;5.404;2022-09-03T02:41:53;18.30;58.70
13049;DHT22;6591;51.446;5.404;2022-09-03T02:44:28;19.20;59.60
13049;DHT22;6591;51.446;5.404;2022-09-03T02:47:02;19.50;60.00
13049;DHT22;6591;51.446;5.404;2022-09-03T02:49:32;18.20;59.20
13049;DHT22;6591;51.446;5.404;2022-09-03T02:52:02;19.60;60.00
13049;DHT22;6591;51.446;5.404;2022-09-03T02:54:32;18.20;59.10
13049;DHT22;6591;51.446;5.404;2022-09-03T02:57:02;20.50;60.00
13049;DHT22;6591;51.446;5.404;2022-09-03T02:59:29;18.10;59.00
13049;DHT22;6591;51.446;5.404;2022-09-03T03:01:56;18.10;59.10
13049;DHT22;6591;51.446;5.404;2022-09-03T03:04:28;19.10;59.60
13049;DHT22;6591;51.446;5.404;2022-09-03T03:06:56;18.10;59.40
13049;DHT22;6591;51.446;5.404;2022-09-03T03:09:24;18.10;59.30
13049;DHT22;6591;51.446;5.404;2022-09-03T03:11:51;18.10;59.20
13049;DHT22;6591;51.446;5.404;2022-09-03T03:14:21;18.10;59.30
13049;DHT22;6591;51.446;5.404;2022-09-03T03:16:50;18.20;59.40
13049;DHT22;6591;51.446;5.404;2022-09-03T03:19:17;18.10;59.50
13049;DHT22;6591;51.446;5.404;2022-09-03T03:21:44;18.00;59.80
13049;DHT22;6591;51.446;5.404;2022-09-03T03:24:11;18.00;59.50
13049;DHT22;6591;51.446;5.404;2022-09-03T03:26:39;18.00;59.50
13049;DHT22;6591;51.446;5.404;2022-09-03T03:29:07;18.00;59.90
13049;DHT22;6591;51.446;5.404;2022-09-03T03:31:42;20.00;61.10
13049;DHT22;6591;51.446;5.404;2022-09-03T03:34:09;17.90;59.70
13049;DHT22;6591;51.446;5.404;2022-09-03T03:36:37;19.80;60.30
13049;DHT22;6591;51.446;5.404;2022-09-03T03:39:05;16.30;59.50
13049;DHT22;6591;51.446;5.404;2022-09-03T03:41:36;17.80;60.50
13049;DHT22;6591;51.446;5.404;2022-09-03T03:44:08;17.80;59.70
13049;DHT22;6591;51.446;5.404;2022-09-03T03:46:38;17.50;60.00
13049;DHT22;6591;51.446;5.404;2022-09-03T03:49:08;17.70;60.50
13049;DHT22;6591;51.446;5.404;2022-09-03T03:51:37;17.80;60.50
13049;DHT22;6591;51.446;5.404;2022-09-03T03:54:06;17.60;60.20
13049;DHT22;6591;51.446;5.404;2022-09-03T03:56:33;17.60;60.20
13049;DHT22;6591;51.446;5.404;2022-09-03T03:59:01;17.70;61.50
13049;DHT22;6591;51.446;5.404;2022-09-03T04:01:29;16.60;60.30
13049;DHT22;6591;51.446;5.404;2022-09-03T04:03:57;17.80;61.00
13049;DHT22;6591;51.446;5.404;2022-09-03T04:06:28;19.20;62.30
13049;DHT22;6591;51.446;5.404;2022-09-03T04:08:56;19.40;63.60
13049;DHT22;6591;51.446;5.404;2022-09-03T04:11:23;19.00;62.80
13049;DHT22;6591;51.446;5.404;2022-09-03T04:13:52;17.50;61.60
13049;DHT22;6591;51.446;5.404;2022-09-03T04:16:25;19.40;62.80
13049;DHT22;6591;51.446;5.404;2022-09-03T04:18:54;19.00;62.60
13049;DHT22;6591;51.446;5.404;2022-09-03T04:21:27;18.60;62.30
13049;DHT22;6591;51.446;5.404;2022-09-03T04:23:57;17.40;62.00
13049;DHT22;6591;51.446;5.404;2022-09-03T04:26:29;17.30;61.60
13049;DHT22;6591;51.446;5.404;2022-09-03T04:29:07;17.90;62.30
13049;DHT22;6591;51.446;5.404;2022-09-03T04:31:36;19.70;64.20
13049;DHT22;6591;51.446;5.404;2022-09-03T04:34:05;19.80;63.50
13049;DHT22;6591;51.446;5.404;2022-09-03T04:36:33;16.30;61.90
13049;DHT22;6591;51.446;5.404;2022-09-03T04:39:01;15.40;61.50
13049;DHT22;6591;51.446;5.404;2022-09-03T04:41:30;18.50;64.70
13049;DHT22;6591;51.446;5.404;2022-09-03T04:44:02;17.30;62.70
13049;DHT22;6591;51.446;5.404;2022-09-03T04:46:29;17.80;64.00
13049;DHT22;6591;51.446;5.404;2022-09-03T04:49:00;17.30;63.70
13049;DHT22;6591;51.446;5.404;2022-09-03T04:51:28;17.40;62.70
13049;DHT22;6591;51.446;5.404;2022-09-03T04:53:59;18.50;63.40
13049;DHT22;6591;51.446;5.404;2022-09-03T04:56:30;17.10;62.70
13049;DHT22;6591;51.446;5.404;2022-09-03T04:59:02;17.40;62.90
13049;DHT22;6591;51.446;5.404;2022-09-03T05:01:36;17.40;62.90
13049;DHT22;6591;51.446;5.404;2022-09-03T05:04:06;17.40;63.00
13049;DHT22;6591;51.446;5.404;2022-09-03T05:06:34;18.50;63.60
13049;DHT22;6591;51.446;5.404;2022-09-03T05:09:08;17.60;63.30
13049;DHT22;6591;51.446;5.404;2022-09-03T05:11:35;17.40;63.50
13049;DHT22;6591;51.446;5.404;2022-09-03T05:14:03;17.30;63.40
13049;DHT22;6591;51.446;5.404;2022-09-03T05:16:31;19.70;64.30
13049;DHT22;6591;51.446;5.404;2022-09-03T05:19:02;17.40;63.20
13049;DHT22;6591;51.446;5.404;2022-09-03T05:21:31;17.50;63.30
13049;DHT22;6591;51.446;5.404;2022-09-03T05:24:02;17.40;62.90
13049;DHT22;6591;51.446;5.404;2022-09-03T05:26:32;17.50;63.40
13049;DHT22;6591;51.446;5.404;2022-09-03T05:29:06;16.30;62.60
13049;DHT22;6591;51.446;5.404;2022-09-03T05:31:36;17.50;63.20
13049;DHT22;6591;51.446;5.404;2022-09-03T05:34:05;17.50;63.30
13049;DHT22;6591;51.446;5.404;2022-09-03T05:36:35;19.90;64.80
13049;DHT22;6591;51.446;5.404;2022-09-03T05:39:04;17.90;63.60
13049;DHT22;6591;51.446;5.404;2022-09-03T05:41:32;18.80;63.90
13049;DHT22;6591;51.446;5.404;2022-09-03T05:44:00;19.20;64.40
13049;DHT22;6591;51.446;5.404;2022-09-03T05:46:30;17.70;62.90
13049;DHT22;6591;51.446;5.404;2022-09-03T05:49:00;17.60;63.60
13049;DHT22;6591;51.446;5.404;2022-09-03T05:51:29;17.70;63.40
13049;DHT22;6591;51.446;5.404;2022-09-03T05:54:01;19.90;64.80
13049;DHT22;6591;51.446;5.404;2022-09-03T05:56:30;17.70;63.50
13049;DHT22;6591;51.446;5.404;2022-09-03T05:59:01;19.70;65.10
13049;DHT22;6591;51.446;5.404;2022-09-03T06:01:39;17.90;64.20
13049;DHT22;6591;51.446;5.404;2022-09-03T06:04:19;17.90;63.80
13049;DHT22;6591;51.446;5.404;2022-09-03T06:06:47;20.30;64.70
13049;DHT22;6591;51.446;5.404;2022-09-03T06:09:19;18.10;63.70
13049;DHT22;6591;51.446;5.404;2022-09-03T06:11:50;18.10;63.60
13049;DHT22;6591;51.446;5.404;2022-09-03T06:14:23;19.10;64.10
13049;DHT22;6591;51.446;5.404;2022-09-03T06:16:51;20.70;64.70
13049;DHT22;6591;51.446;5.404;2022-09-03T06:19:19;17.70;63.20
13049;DHT22;6591;51.446;5.404;2022-09-03T06:21:46;18.60;63.30
13049;DHT22;6591;51.446;5.404;2022-09-03T06:24:19;19.90;63.70
13049;DHT22;6591;51.446;5.404;2022-09-03T06:26:55;20.30;64.30
13049;DHT22;6591;51.446;5.404;2022-09-03T06:29:31;18.90;62.70
13049;DHT22;6591;51.446;5.404;2022-09-03T06:32:00;19.10;62.20
13049;DHT22;6591;51.446;5.404;2022-09-03T06:34:29;20.90;63.80
13049;DHT22;6591;51.446;5.404;2022-09-03T06:36:56;19.30;62.20
13049;DHT22;6591;51.446;5.404;2022-09-03T06:39:24;19.50;62.60
13049;DHT22;6591;51.446;5.404;2022-09-03T06:41:52;20.50;63.20
13049;DHT22;6591;51.446;5.404;2022-09-03T06:44:27;19.70;62.00
13049;DHT22;6591;51.446;5.404;2022-09-03T06:46:54;19.80;61.60
13049;DHT22;6591;51.446;5.404;2022-09-03T06:49:21;20.60;61.90
13049;DHT22;6591;51.446;5.404;2022-09-03T06:51:51;21.70;62.60
13049;DHT22;6591;51.446;5.404;2022-09-03T06:54:19;19.20;60.80
13049;DHT22;6591;51.446;5.404;2022-09-03T06:56:46;20.30;61.30
13049;DHT22;6591;51.446;5.404;2022-09-03T06:59:14;21.10;61.20
13049;DHT22;6591;51.446;5.404;2022-09-03T07:01:42;20.80;60.80
13049;DHT22;6591;51.446;5.404;2022-09-03T07:04:13;21.80;61.40
13049;DHT22;6591;51.446;5.404;2022-09-03T07:06:46;20.90;60.70
13049;DHT22;6591;51.446;5.404;2022-09-03T07:09:16;21.00;60.10
13049;DHT22;6591;51.446;5.404;2022-09-03T07:11:45;21.10;59.90
13049;DHT22;6591;51.446;5.404;2022-09-03T07:14:15;21.20;59.80
13049;DHT22;6591;51.446;5.404;2022-09-03T07:16:43;21.30;59.80
13049;DHT22;6591;51.446;5.404;2022-09-03T07:19:11;21.30;59.60
13049;DHT22;6591;51.446;5.404;2022-09-03T07:21:40;21.30;59.40
13049;DHT22;6591;51.446;5.404;2022-09-03T07:24:15;21.30;59.40
13049;DHT22;6591;51.446;5.404;2022-09-03T07:26:42;23.30;60.10
13049;DHT22;6591;51.446;5.404;2022-09-03T07:29:12;21.40;59.00
13049;DHT22;6591;51.446;5.404;2022-09-03T07:31:42;22.40;59.60
13049;DHT22;6591;51.446;5.404;2022-09-03T07:34:11;22.20;59.60
13049;DHT22;6591;51.446;5.404;2022-09-03T07:36:41;21.60;59.20
13049;DHT22;6591;51.446;5.404;2022-09-03T07:39:15;23.10;59.70
13049;DHT22;6591;51.446;5.404;2022-09-03T07:41:44;22.00;59.00
13049;DHT22;6591;51.446;5.404;2022-09-03T07:44:14;22.70;59.20
13049;DHT22;6591;51.446;5.404;2022-09-03T07:46:45;22.40;58.80
13049;DHT22;6591;51.446;5.404;2022-09-03T07:49:13;22.10;58.20
13049;DHT22;6591;51.446;5.404;2022-09-03T07:51:40;23.00;57.90
13049;DHT22;6591;51.446;5.404;2022-09-03T07:54:09;23.30;58.30
13049;DHT22;6591;51.446;5.404;2022-09-03T07:56:38;23.70;57.50
13049;DHT22;6591;51.446;5.404;2022-09-03T07:59:07;23.70;58.00
13049;DHT22;6591;51.446;5.404;2022-09-03T08:01:35;24.10;57.00
13049;DHT22;6591;51.446;5.404;2022-09-03T08:04:07;25.60;57.40
13049;DHT22;6591;51.446;5.404;2022-09-03T08:06:36;24.70;56.20
13049;DHT22;6591;51.446;5.404;2022-09-03T08:09:06;26.90;56.90
13049;DHT22;6591;51.446;5.404;2022-09-03T08:11:39;25.20;55.30
13049;DHT22;6591;51.446;5.404;2022-09-03T08:14:10;26.70;55.70
13049;DHT22;6591;51.446;5.404;2022-09-03T08:16:43;25.80;54.50
13049;DHT22;6591;51.446;5.404;2022-09-03T08:19:13;26.10;54.00
13049;DHT22;6591;51.446;5.404;2022-09-03T08:21:42;26.30;53.70
13049;DHT22;6591;51.446;5.404;2022-09-03T08:24:11;28.60;54.60
13049;DHT22;6591;51.446;5.404;2022-09-03T08:26:41;27.00;53.30
13049;DHT22;6591;51.446;5.404;2022-09-03T08:29:16;28.30;53.40
13049;DHT22;6591;51.446;5.404;2022-09-03T08:31:44;27.10;52.60
13049;DHT22;6591;51.446;5.404;2022-09-03T08:34:11;28.40;52.90
13049;DHT22;6591;51.446;5.404;2022-09-03T08:36:40;28.10;52.50
13049;DHT22;6591;51.446;5.404;2022-09-03T08:39:08;28.00;52.00
13049;DHT22;6591;51.446;5.404;2022-09-03T08:45:09;28.30;50.60
13049;DHT22;6591;51.446;5.404;2022-09-03T08:47:47;28.50;50.90
13049;DHT22;6591;51.446;5.404;2022-09-03T08:50:26;28.70;50.40
13049;DHT22;6591;51.446;5.404;2022-09-03T08:53:02;26.90;48.20
13049;DHT22;6591;51.446;5.404;2022-09-03T08:55:48;29.10;49.60
13049;DHT22;6591;51.446;5.404;2022-09-03T08:58:37;29.40;49.40
13049;DHT22;6591;51.446;5.404;2022-09-03T09:01:34;29.60;49.30
13049;DHT22;6591;51.446;5.404;2022-09-03T09:10:42;30.20;48.20
13049;DHT22;6591;51.446;5.404;2022-09-03T09:16:21;30.70;47.80
13049;DHT22;6591;51.446;5.404;2022-09-03T09:22:43;31.20;46.40
13049;DHT22;6591;51.446;5.404;2022-09-03T09:25:20;31.50;46.10
13049;DHT22;6591;51.446;5.404;2022-09-03T09:28:15;31.50;46.00
13049;DHT22;6591;51.446;5.404;2022-09-03T09:30:46;30.90;44.30
13049;DHT22;6591;51.446;5.404;2022-09-03T09:33:16;31.70;45.20
13049;DHT22;6591;51.446;5.404;2022-09-03T09:35:44;31.90;45.20
13049;DHT22;6591;51.446;5.404;2022-09-03T09:38:12;32.30;45.30
13049;DHT22;6591;51.446;5.404;2022-09-03T09:40:43;32.20;45.10
13049;DHT22;6591;51.446;5.404;2022-09-03T09:43:16;33.50;45.60
13049;DHT22;6591;51.446;5.404;2022-09-03T09:45:49;32.40;44.30
13049;DHT22;6591;51.446;5.404;2022-09-03T09:48:20;32.60;44.40
13049;DHT22;6591;51.446;5.404;2022-09-03T09:56:46;33.30;43.00
13049;DHT22;6591;51.446;5.404;2022-09-03T09:59:26;33.50;43.60
13049;DHT22;6591;51.446;5.404;2022-09-03T10:02:18;34.00;42.80
13049;DHT22;6591;51.446;5.404;2022-09-03T10:05:10;33.70;41.40
13049;DHT22;6591;51.446;5.404;2022-09-03T10:07:39;33.80;41.10
13049;DHT22;6591;51.446;5.404;2022-09-03T10:13:05;33.90;41.70
13049;DHT22;6591;51.446;5.404;2022-09-03T10:16:09;34.20;41.50
13049;DHT22;6591;51.446;5.404;2022-09-03T10:22:00;34.60;41.20
13049;DHT22;6591;51.446;5.404;2022-09-03T10:24:52;34.80;40.80
13049;DHT22;6591;51.446;5.404;2022-09-03T10:27:24;35.00;40.40
13049;DHT22;6591;51.446;5.404;2022-09-03T10:29:52;35.20;40.80
13049;DHT22;6591;51.446;5.404;2022-09-03T10:32:40;34.50;40.00
13049;DHT22;6591;51.446;5.404;2022-09-03T10:35:42;35.40;39.90
13049;DHT22;6591;51.446;5.404;2022-09-03T10:38:26;35.50;39.80
13049;DHT22;6591;51.446;5.404;2022-09-03T10:47:36;36.00;38.90
13049;DHT22;6591;51.446;5.404;2022-09-03T11:05:19;36.40;38.20
13049;DHT22;6591;51.446;5.404;2022-09-03T11:08:08;36.50;38.40
13049;DHT22;6591;51.446;5.404;2022-09-03T11:10:47;36.60;38.10
13049;DHT22;6591;51.446;5.404;2022-09-03T11:13:26;36.80;37.80
13049;DHT22;6591;51.446;5.404;2022-09-03T11:16:07;36.90;37.60
13049;DHT22;6591;51.446;5.404;2022-09-03T11:18:52;35.20;36.10
13049;DHT22;6591;51.446;5.404;2022-09-03T11:21:47;36.80;37.10
13049;DHT22;6591;51.446;5.404;2022-09-03T11:24:25;36.60;37.10
13049;DHT22;6591;51.446;5.404;2022-09-03T11:30:05;36.40;37.30
13049;DHT22;6591;51.446;5.404;2022-09-03T11:32:50;36.40;37.30
13049;DHT22;6591;51.446;5.404;2022-09-03T11:35:37;37.90;37.80
13049;DHT22;6591;51.446;5.404;2022-09-03T11:38:18;36.60;37.00
13049;DHT22;6591;51.446;5.404;2022-09-03T11:41:22;36.60;37.30
13049;DHT22;6591;51.446;5.404;2022-09-03T11:43:54;36.70;37.10
13049;DHT22;6591;51.446;5.404;2022-09-03T11:48:52;37.00;37.30
13049;DHT22;6591;51.446;5.404;2022-09-03T11:56:28;37.60;37.10
13049;DHT22;6591;51.446;5.404;2022-09-03T12:04:55;38.00;35.90
13049;DHT22;6591;51.446;5.404;2022-09-03T12:08:00;38.10;35.90
13049;DHT22;6591;51.446;5.404;2022-09-03T12:17:04;38.30;34.80
13049;DHT22;6591;51.446;5.404;2022-09-03T12:19:53;38.40;35.30
13049;DHT22;6591;51.446;5.404;2022-09-03T12:22:25;38.60;35.10
13049;DHT22;6591;51.446;5.404;2022-09-03T12:24:55;38.50;34.90
13049;DHT22;6591;51.446;5.404;2022-09-03T12:27:45;38.50;34.90
13049;DHT22;6591;51.446;5.404;2022-09-03T12:30:17;38.40;34.70
13049;DHT22;6591;51.446;5.404;2022-09-03T12:32:48;38.30;34.20
13049;DHT22;6591;51.446;5.404;2022-09-03T12:35:23;38.10;34.00
13049;DHT22;6591;51.446;5.404;2022-09-03T12:38:12;37.90;34.20
13049;DHT22;6591;51.446;5.404;2022-09-03T12:40:44;37.70;34.60
13049;DHT22;6591;51.446;5.404;2022-09-03T12:43:31;37.50;34.90
13049;DHT22;6591;51.446;5.404;2022-09-03T12:46:15;37.50;35.20
13049;DHT22;6591;51.446;5.404;2022-09-03T12:48:52;37.40;35.00
13049;DHT22;6591;51.446;5.404;2022-09-03T12:51:48;37.50;35.10
13049;DHT22;6591;51.446;5.404;2022-09-03T12:54:22;37.60;35.30
13049;DHT22;6591;51.446;5.404;2022-09-03T12:56:55;37.70;35.10
13049;DHT22;6591;51.446;5.404;2022-09-03T12:59:27;37.80;34.90
13049;DHT22;6591;51.446;5.404;2022-09-03T13:02:05;37.80;34.80
13049;DHT22;6591;51.446;5.404;2022-09-03T13:04:41;36.50;33.70
13049;DHT22;6591;51.446;5.404;2022-09-03T13:07:23;37.70;34.70
13049;DHT22;6591;51.446;5.404;2022-09-03T13:10:02;37.50;34.60
13049;DHT22;6591;51.446;5.404;2022-09-03T13:12:44;37.40;34.80
13049;DHT22;6591;51.446;5.404;2022-09-03T13:15:21;37.40;35.00
13049;DHT22;6591;51.446;5.404;2022-09-03T13:20:59;37.50;34.90
13049;DHT22;6591;51.446;5.404;2022-09-03T13:32:38;38.10;34.20
13049;DHT22;6591;51.446;5.404;2022-09-03T13:46:52;37.40;35.10
13049;DHT22;6591;51.446;5.404;2022-09-03T13:49:50;37.40;35.30
13049;DHT22;6591;51.446;5.404;2022-09-03T13:58:45;37.30;34.70
13049;DHT22;6591;51.446;5.404;2022-09-03T14:04:24;38.40;34.30
13049;DHT22;6591;51.446;5.404;2022-09-03T14:07:07;38.60;34.20
13049;DHT22;6591;51.446;5.404;2022-09-03T14:12:45;38.70;33.60
13049;DHT22;6591;51.446;5.404;2022-09-03T14:15:40;39.00;34.10
13049;DHT22;6591;51.446;5.404;2022-09-03T14:18:48;38.60;32.90
13049;DHT22;6591;51.446;5.404;2022-09-03T14:21:32;38.40;33.30
13049;DHT22;6591;51.446;5.404;2022-09-03T14:24:16;38.30;33.50
13049;DHT22;6591;51.446;5.404;2022-09-03T14:26:59;38.30;33.80
13049;DHT22;6591;51.446;5.404;2022-09-03T14:29:30;38.30;34.10
13049;DHT22;6591;51.446;5.404;2022-09-03T14:32:10;38.40;34.30
13049;DHT22;6591;51.446;5.404;2022-09-03T14:35:09;38.50;34.20
13049;DHT22;6591;51.446;5.404;2022-09-03T14:41:03;39.00;34.10
13049;DHT22;6591;51.446;5.404;2022-09-03T14:44:10;39.30;33.90
13049;DHT22;6591;51.446;5.404;2022-09-03T14:50:06;39.90;33.10
13049;DHT22;6591;51.446;5.404;2022-09-03T14:53:11;40.00;32.90
13049;DHT22;6591;51.446;5.404;2022-09-03T15:11:23;39.10;32.10
13049;DHT22;6591;51.446;5.404;2022-09-03T15:14:37;38.80;32.70
13049;DHT22;6591;51.446;5.404;2022-09-03T15:22:58;38.80;33.50
13049;DHT22;6591;51.446;5.404;2022-09-03T15:26:09;38.80;33.40
13049;DHT22;6591;51.446;5.404;2022-09-03T15:37:26;38.80;33.70
13049;DHT22;6591;51.446;5.404;2022-09-03T15:43:08;38.80;33.40
13049;DHT22;6591;51.446;5.404;2022-09-03T15:48:21;38.70;34.10
13049;DHT22;6591;51.446;5.404;2022-09-03T15:57:20;38.70;35.00
13049;DHT22;6591;51.446;5.404;2022-09-03T16:03:00;39.10;35.00
13049;DHT22;6591;51.446;5.404;2022-09-03T16:05:40;39.30;34.80
13049;DHT22;6591;51.446;5.404;2022-09-03T16:08:27;39.50;34.70
13049;DHT22;6591;51.446;5.404;2022-09-03T16:11:33;39.60;34.40
13049;DHT22;6591;51.446;5.404;2022-09-03T16:14:21;39.80;34.30
13049;DHT22;6591;51.446;5.404;2022-09-03T16:17:06;40.00;34.40
13049;DHT22;6591;51.446;5.404;2022-09-03T16:20:16;40.00;34.10
13049;DHT22;6591;51.446;5.404;2022-09-03T16:22:54;39.90;33.90
13049;DHT22;6591;51.446;5.404;2022-09-03T16:25:33;39.60;33.80
13049;DHT22;6591;51.446;5.404;2022-09-03T16:28:26;39.40;33.90
13049;DHT22;6591;51.446;5.404;2022-09-03T16:40:17;37.60;34.20
13049;DHT22;6591;51.446;5.404;2022-09-03T16:43:11;37.30;34.90
13049;DHT22;6591;51.446;5.404;2022-09-03T16:46:28;36.90;35.30
13049;DHT22;6591;51.446;5.404;2022-09-03T17:07:19;36.60;37.10
13049;DHT22;6591;51.446;5.404;2022-09-03T17:13:15;36.10;37.00
13049;DHT22;6591;51.446;5.404;2022-09-03T17:17:03;35.80;37.20
13049;DHT22;6591;51.446;5.404;2022-09-03T17:19:34;35.30;37.80
13049;DHT22;6591;51.446;5.404;2022-09-03T17:25:34;34.40;38.40
13049;DHT22;6591;51.446;5.404;2022-09-03T17:36:35;32.90;40.10
13049;DHT22;6591;51.446;5.404;2022-09-03T17:39:38;32.60;40.70
13049;DHT22;6591;51.446;5.404;2022-09-03T17:48:53;31.50;42.20
13049;DHT22;6591;51.446;5.404;2022-09-03T17:51:57;31.10;42.90
13049;DHT22;6591;51.446;5.404;2022-09-03T17:54:40;30.80;43.50
13049;DHT22;6591;51.446;5.404;2022-09-03T18:00:20;30.20;43.90
13049;DHT22;6591;51.446;5.404;2022-09-03T18:03:04;30.00;44.30
13049;DHT22;6591;51.446;5.404;2022-09-03T18:08:25;29.50;44.70
13049;DHT22;6591;51.446;5.404;2022-09-03T18:17:18;28.80;45.50
13049;DHT22;6591;51.446;5.404;2022-09-03T18:20:08;28.70;46.40
13049;DHT22;6591;51.446;5.404;2022-09-03T18:26:23;28.30;47.10
13049;DHT22;6591;51.446;5.404;2022-09-03T18:29:47;28.00;47.70
13049;DHT22;6591;51.446;5.404;2022-09-03T18:32:39;27.90;48.10
13049;DHT22;6591;51.446;5.404;2022-09-03T18:35:29;27.70;47.20
13049;DHT22;6591;51.446;5.404;2022-09-03T18:38:24;27.50;48.10
13049;DHT22;6591;51.446;5.404;2022-09-03T18:47:51;27.20;49.90
13049;DHT22;6591;51.446;5.404;2022-09-03T18:51:26;27.00;49.00
13049;DHT22;6591;51.446;5.404;2022-09-03T18:54:47;26.90;50.40
13049;DHT22;6591;51.446;5.404;2022-09-03T18:58:13;26.80;50.60
13049;DHT22;6591;51.446;5.404;2022-09-03T19:01:31;27.20;51.20
13049;DHT22;6591;51.446;5.404;2022-09-03T19:11:27;26.50;51.70
13049;DHT22;6591;51.446;5.404;2022-09-03T19:14:47;26.40;51.40
13049;DHT22;6591;51.446;5.404;2022-09-03T19:17:54;26.30;51.70
13049;DHT22;6591;51.446;5.404;2022-09-03T19:21:03;26.20;52.00
13049;DHT22;6591;51.446;5.404;2022-09-03T19:24:14;26.10;52.90
13049;DHT22;6591;51.446;5.404;2022-09-03T19:30:50;25.80;53.00
13049;DHT22;6591;51.446;5.404;2022-09-03T19:40:28;25.50;54.40
13049;DHT22;6591;51.446;5.404;2022-09-03T19:43:57;25.30;54.40
13049;DHT22;6591;51.446;5.404;2022-09-03T19:47:02;25.30;54.90
13049;DHT22;6591;51.446;5.404;2022-09-03T19:50:01;25.70;54.40
13049;DHT22;6591;51.446;5.404;2022-09-03T19:53:00;25.00;54.40
13049;DHT22;6591;51.446;5.404;2022-09-03T19:55:53;27.30;56.50
13049;DHT22;6591;51.446;5.404;2022-09-03T19:58:46;25.20;55.60
13049;DHT22;6591;51.446;5.404;2022-09-03T20:01:35;24.70;55.90
13049;DHT22;6591;51.446;5.404;2022-09-03T20:04:37;24.70;55.80
13049;DHT22;6591;51.446;5.404;2022-09-03T20:07:27;24.60;58.00
13049;DHT22;6591;51.446;5.404;2022-09-03T20:10:15;24.50;57.40
13049;DHT22;6591;51.446;5.404;2022-09-03T20:13:13;24.40;58.20
13049;DHT22;6591;51.446;5.404;2022-09-03T20:33:48;24.00;58.70
13049;DHT22;6591;51.446;5.404;2022-09-03T20:39:35;24.50;59.50
13049;DHT22;6591;51.446;5.404;2022-09-03T20:48:15;23.70;60.00
13049;DHT22;6591;51.446;5.404;2022-09-03T20:51:12;23.70;61.20
13049;DHT22;6591;51.446;5.404;2022-09-03T20:56:50;23.50;60.50
13049;DHT22;6591;51.446;5.404;2022-09-03T20:59:38;23.70;60.60
13049;DHT22;6591;51.446;5.404;2022-09-03T21:02:28;23.40;61.00
13049;DHT22;6591;51.446;5.404;2022-09-03T21:05:21;23.40;61.10
13049;DHT22;6591;51.446;5.404;2022-09-03T21:11:45;23.20;61.20
13049;DHT22;6591;51.446;5.404;2022-09-03T21:17:30;23.00;63.40
13049;DHT22;6591;51.446;5.404;2022-09-03T21:20:16;23.00;63.60
13049;DHT22;6591;51.446;5.404;2022-09-03T21:23:14;22.90;63.30
13049;DHT22;6591;51.446;5.404;2022-09-03T21:28:42;22.70;63.30
13049;DHT22;6591;51.446;5.404;2022-09-03T21:31:23;22.70;64.50
13049;DHT22;6591;51.446;5.404;2022-09-03T21:34:11;23.20;64.60
13049;DHT22;6591;51.446;5.404;2022-09-03T21:36:45;22.60;65.30
13049;DHT22;6591;51.446;5.404;2022-09-03T21:39:21;25.00;65.70
13049;DHT22;6591;51.446;5.404;2022-09-03T21:42:14;24.50;66.40
13049;DHT22;6591;51.446;5.404;2022-09-03T21:45:08;22.30;66.30
13049;DHT22;6591;51.446;5.404;2022-09-03T21:47:48;22.20;65.40
13049;DHT22;6591;51.446;5.404;2022-09-03T21:50:20;22.10;66.00
13049;DHT22;6591;51.446;5.404;2022-09-03T21:53:02;21.90;66.20
13049;DHT22;6591;51.446;5.404;2022-09-03T21:55:54;21.90;68.00
13049;DHT22;6591;51.446;5.404;2022-09-03T21:58:52;21.80;69.00
13049;DHT22;6591;51.446;5.404;2022-09-03T22:02:02;21.60;68.60
13049;DHT22;6591;51.446;5.404;2022-09-03T22:04:35;21.60;69.50
13049;DHT22;6591;51.446;5.404;2022-09-03T22:07:22;21.50;67.70
13049;DHT22;6591;51.446;5.404;2022-09-03T22:12:37;23.50;70.50
13049;DHT22;6591;51.446;5.404;2022-09-03T22:15:30;21.30;70.00
13049;DHT22;6591;51.446;5.404;2022-09-03T22:18:26;21.30;69.30
13049;DHT22;6591;51.446;5.404;2022-09-03T22:21:50;21.20;73.00
13049;DHT22;6591;51.446;5.404;2022-09-03T22:27:21;21.00;70.60
13049;DHT22;6591;51.446;5.404;2022-09-03T22:30:06;21.00;71.60
13049;DHT22;6591;51.446;5.404;2022-09-03T22:35:56;20.80;73.50
13049;DHT22;6591;51.446;5.404;2022-09-03T22:41:52;20.70;74.20
13049;DHT22;6591;51.446;5.404;2022-09-03T22:45:18;20.70;74.50
13049;DHT22;6591;51.446;5.404;2022-09-03T22:51:19;20.60;75.10
13049;DHT22;6591;51.446;5.404;2022-09-03T22:54:22;20.60;72.40
13049;DHT22;6591;51.446;5.404;2022-09-03T22:57:00;20.60;75.20